sensor_id;sensor_type;location;lat;lon;timestamp;temperature;humidity
31369;DHT22;18004;48.416;10.066;2023-12-22T00:01:08;5.60;99.90
31369;DHT22;18004;48.416;10.066;2023-12-22T00:04:20;5.60;99.90
31369;DHT22;18004;48.416;10.066;2023-12-22T00:07:10;5.50;99.90
31369;DHT22;18004;48.416;10.066;2023-12-22T00:09:36;5.60;99.90
31369;DHT22;18004;48.416;10.066;2023-12-22T00:12:02;5.60;99.90
31369;DHT22;18004;48.416;10.066;2023-12-22T00:14:28;5.60;99.90
31369;DHT22;18004;48.416;10.066;2023-12-22T00:16:53;5.60;99.90
31369;DHT22;18004;48.416;10.066;2023-12-22T00:19:20;5.60;99.90
31369;DHT22;18004;48.416;10.066;2023-12-22T00:21:45;5.60;99.90
31369;DHT22;18004;48.416;10.066;2023-12-22T00:24:11;5.60;99.90
31369;DHT22;18004;48.416;10.066;2023-12-22T00:26:37;5.60;99.90
31369;DHT22;18004;48.416;10.066;2023-12-22T00:29:03;5.80;99.90
31369;DHT22;18004;48.416;10.066;2023-12-22T00:31:28;5.80;99.90
31369;DHT22;18004;48.416;10.066;2023-12-22T00:33:54;5.90;99.90
31369;DHT22;18004;48.416;10.066;2023-12-22T00:36:20;5.90;99.90
31369;DHT22;18004;48.416;10.066;2023-12-22T00:38:50;5.90;99.90
31369;DHT22;18004;48.416;10.066;2023-12-22T00:41:16;5.90;99.90
31369;DHT22;18004;48.416;10.066;2023-12-22T00:43:41;5.90;99.90
31369;DHT22;18004;48.416;10.066;2023-12-22T00:46:07;5.80;99.90
31369;DHT22;18004;48.416;10.066;2023-12-22T00:48:33;5.80;99.90
31369;DHT22;18004;48.416;10.066;2023-12-22T00:50:59;5.70;99.90
31369;DHT22;18004;48.416;10.066;2023-12-22T00:53:24;5.60;99.90
31369;DHT22;18004;48.416;10.066;2023-12-22T00:55:51;5.60;99.90
31369;DHT22;18004;48.416;10.066;2023-12-22T00:58:16;5.60;99.90
31369;DHT22;18004;48.416;10.066;2023-12-22T01:00:42;5.60;99.90
31369;DHT22;18004;48.416;10.066;2023-12-22T01:03:08;5.60;99.90
31369;DHT22;18004;48.416;10.066;2023-12-22T01:05:34;5.60;99.90
31369;DHT22;18004;48.416;10.066;2023-12-22T01:07:59;5.60;99.90
31369;DHT22;18004;48.416;10.066;2023-12-22T01:10:25;5.60;99.90
31369;DHT22;18004;48.416;10.066;2023-12-22T01:12:51;5.60;99.90
31369;DHT22;18004;48.416;10.066;2023-12-22T01:15:17;5.60;99.90
31369;DHT22;18004;48.416;10.066;2023-12-22T01:17:42;5.70;99.90
31369;DHT22;18004;48.416;10.066;2023-12-22T01:20:08;5.80;99.90
31369;DHT22;18004;48.416;10.066;2023-12-22T01:22:34;6.00;99.90
31369;DHT22;18004;48.416;10.066;2023-12-22T01:25:04;6.40;99.90
31369;DHT22;18004;48.416;10.066;2023-12-22T01:27:31;6.50;99.90
31369;DHT22;18004;48.416;10.066;2023-12-22T01:29:56;6.70;99.90
31369;DHT22;18004;48.416;10.066;2023-12-22T01:32:22;6.70;99.90
31369;DHT22;18004;48.416;10.066;2023-12-22T01:34:48;6.60;99.90
31369;DHT22;18004;48.416;10.066;2023-12-22T01:37:14;6.40;99.90
31369;DHT22;18004;48.416;10.066;2023-12-22T01:40:18;5.60;99.90
31369;DHT22;18004;48.416;10.066;2023-12-22T01:42:44;5.40;99.90
31369;DHT22;18004;48.416;10.066;2023-12-22T01:45:11;5.40;99.90
31369;DHT22;18004;48.416;10.066;2023-12-22T01:47:36;5.40;99.90
31369;DHT22;18004;48.416;10.066;2023-12-22T01:50:03;5.50;99.90
31369;DHT22;18004;48.416;10.066;2023-12-22T01:52:29;5.50;99.90
31369;DHT22;18004;48.416;10.066;2023-12-22T01:54:55;5.60;99.90
31369;DHT22;18004;48.416;10.066;2023-12-22T01:57:21;5.60;99.90
31369;DHT22;18004;48.416;10.066;2023-12-22T01:59:48;5.70;99.90
31369;DHT22;18004;48.416;10.066;2023-12-22T02:02:14;5.80;99.90
31369;DHT22;18004;48.416;10.066;2023-12-22T02:04:40;5.80;99.90
31369;DHT22;18004;48.416;10.066;2023-12-22T02:07:08;6.00;99.90
31369;DHT22;18004;48.416;10.066;2023-12-22T02:09:35;6.10;99.90
31369;DHT22;18004;48.416;10.066;2023-12-22T02:12:03;6.20;99.90
31369;DHT22;18004;48.416;10.066;2023-12-22T02:14:29;6.20;99.90
31369;DHT22;18004;48.416;10.066;2023-12-22T02:22:06;6.40;99.90
31369;DHT22;18004;48.416;10.066;2023-12-22T02:24:32;6.60;99.90
31369;DHT22;18004;48.416;10.066;2023-12-22T02:30:08;6.60;99.90
31369;DHT22;18004;48.416;10.066;2023-12-22T02:32:38;6.50;99.90
31369;DHT22;18004;48.416;10.066;2023-12-22T02:35:10;6.50;99.90
31369;DHT22;18004;48.416;10.066;2023-12-22T02:37:39;6.60;99.90
31369;DHT22;18004;48.416;10.066;2023-12-22T02:40:07;6.60;99.90
31369;DHT22;18004;48.416;10.066;2023-12-22T02:42:34;6.60;99.90
31369;DHT22;18004;48.416;10.066;2023-12-22T02:45:01;6.60;99.90
31369;DHT22;18004;48.416;10.066;2023-12-22T02:47:27;6.60;99.90
31369;DHT22;18004;48.416;10.066;2023-12-22T02:49:58;6.50;99.90
31369;DHT22;18004;48.416;10.066;2023-12-22T02:52:23;6.50;99.90
31369;DHT22;18004;48.416;10.066;2023-12-22T02:54:49;6.50;99.90
31369;DHT22;18004;48.416;10.066;2023-12-22T02:57:15;6.50;99.90
31369;DHT22;18004;48.416;10.066;2023-12-22T02:59:41;6.40;99.90
31369;DHT22;18004;48.416;10.066;2023-12-22T03:02:07;6.40;99.90
31369;DHT22;18004;48.416;10.066;2023-12-22T03:04:32;6.50;99.90
31369;DHT22;18004;48.416;10.066;2023-12-22T03:06:58;6.50;99.90
31369;DHT22;18004;48.416;10.066;2023-12-22T03:09:24;6.50;99.90
31369;DHT22;18004;48.416;10.066;2023-12-22T03:11:49;6.50;99.90
31369;DHT22;18004;48.416;10.066;2023-12-22T03:14:17;6.40;99.90
31369;DHT22;18004;48.416;10.066;2023-12-22T03:16:43;6.50;99.90
31369;DHT22;18004;48.416;10.066;2023-12-22T03:19:09;6.50;99.90
31369;DHT22;18004;48.416;10.066;2023-12-22T03:21:34;6.40;99.90
31369;DHT22;18004;48.416;10.066;2023-12-22T03:24:00;6.50;99.90
31369;DHT22;18004;48.416;10.066;2023-12-22T03:26:29;6.40;99.90
31369;DHT22;18004;48.416;10.066;2023-12-22T03:28:55;6.40;99.90
31369;DHT22;18004;48.416;10.066;2023-12-22T03:31:20;6.40;99.90
31369;DHT22;18004;48.416;10.066;2023-12-22T03:33:46;6.40;99.90
31369;DHT22;18004;48.416;10.066;2023-12-22T03:36:12;6.50;99.90
31369;DHT22;18004;48.416;10.066;2023-12-22T03:38:38;6.40;99.90
31369;DHT22;18004;48.416;10.066;2023-12-22T03:41:03;6.50;99.90
31369;DHT22;18004;48.416;10.066;2023-12-22T03:43:29;6.50;99.90
31369;DHT22;18004;48.416;10.066;2023-12-22T03:45:57;6.50;99.90
31369;DHT22;18004;48.416;10.066;2023-12-22T03:48:22;6.50;99.90
31369;DHT22;18004;48.416;10.066;2023-12-22T03:50:48;6.60;99.90
31369;DHT22;18004;48.416;10.066;2023-12-22T03:53:14;6.50;99.90
31369;DHT22;18004;48.416;10.066;2023-12-22T03:55:39;6.50;99.90
31369;DHT22;18004;48.416;10.066;2023-12-22T03:58:05;6.50;99.90
31369;DHT22;18004;48.416;10.066;2023-12-22T04:00:33;6.50;99.90
31369;DHT22;18004;48.416;10.066;2023-12-22T04:02:59;6.50;99.90
31369;DHT22;18004;48.416;10.066;2023-12-22T04:05:24;6.70;99.90
31369;DHT22;18004;48.416;10.066;2023-12-22T04:07:50;6.70;99.90
31369;DHT22;18004;48.416;10.066;2023-12-22T04:10:17;6.70;99.90
31369;DHT22;18004;48.416;10.066;2023-12-22T04:12:43;6.80;99.90
31369;DHT22;18004;48.416;10.066;2023-12-22T04:15:09;6.80;99.90
31369;DHT22;18004;48.416;10.066;2023-12-22T04:17:35;6.80;99.90
31369;DHT22;18004;48.416;10.066;2023-12-22T04:20:01;6.70;99.90
31369;DHT22;18004;48.416;10.066;2023-12-22T04:22:27;6.70;99.90
31369;DHT22;18004;48.416;10.066;2023-12-22T04:24:53;6.70;99.90
31369;DHT22;18004;48.416;10.066;2023-12-22T04:27:18;6.70;99.90
31369;DHT22;18004;48.416;10.066;2023-12-22T04:29:44;6.70;99.90
31369;DHT22;18004;48.416;10.066;2023-12-22T04:32:10;6.70;99.90
31369;DHT22;18004;48.416;10.066;2023-12-22T04:34:36;6.60;99.90
31369;DHT22;18004;48.416;10.066;2023-12-22T04:37:01;6.60;99.90
31369;DHT22;18004;48.416;10.066;2023-12-22T04:39:27;6.40;99.90
31369;DHT22;18004;48.416;10.066;2023-12-22T04:41:53;6.30;99.90
31369;DHT22;18004;48.416;10.066;2023-12-22T04:44:19;6.20;99.90
31369;DHT22;18004;48.416;10.066;2023-12-22T04:46:44;6.00;99.90
31369;DHT22;18004;48.416;10.066;2023-12-22T04:49:10;6.00;99.90
31369;DHT22;18004;48.416;10.066;2023-12-22T04:51:36;5.90;99.90
31369;DHT22;18004;48.416;10.066;2023-12-22T04:54:01;5.80;99.90
31369;DHT22;18004;48.416;10.066;2023-12-22T04:56:27;5.80;99.90
31369;DHT22;18004;48.416;10.066;2023-12-22T04:58:53;5.70;99.90
31369;DHT22;18004;48.416;10.066;2023-12-22T05:01:19;5.70;99.90
31369;DHT22;18004;48.416;10.066;2023-12-22T05:03:45;5.70;99.90
31369;DHT22;18004;48.416;10.066;2023-12-22T05:06:10;5.70;99.90
31369;DHT22;18004;48.416;10.066;2023-12-22T05:08:36;5.70;99.90
31369;DHT22;18004;48.416;10.066;2023-12-22T05:11:02;5.70;99.90
31369;DHT22;18004;48.416;10.066;2023-12-22T05:13:28;5.70;99.90
31369;DHT22;18004;48.416;10.066;2023-12-22T05:15:54;5.70;99.90
31369;DHT22;18004;48.416;10.066;2023-12-22T05:18:20;5.70;99.90
31369;DHT22;18004;48.416;10.066;2023-12-22T05:20:46;5.70;99.90
31369;DHT22;18004;48.416;10.066;2023-12-22T05:23:12;5.80;99.90
31369;DHT22;18004;48.416;10.066;2023-12-22T05:25:38;5.80;99.90
31369;DHT22;18004;48.416;10.066;2023-12-22T05:28:03;5.90;99.90
31369;DHT22;18004;48.416;10.066;2023-12-22T05:30:29;5.80;99.90
31369;DHT22;18004;48.416;10.066;2023-12-22T05:32:55;6.10;99.90
31369;DHT22;18004;48.416;10.066;2023-12-22T05:35:21;6.10;99.90
31369;DHT22;18004;48.416;10.066;2023-12-22T05:37:46;6.10;99.90
31369;DHT22;18004;48.416;10.066;2023-12-22T05:40:13;6.20;99.90
31369;DHT22;18004;48.416;10.066;2023-12-22T05:42:39;6.30;99.90
31369;DHT22;18004;48.416;10.066;2023-12-22T05:45:06;6.30;99.90
31369;DHT22;18004;48.416;10.066;2023-12-22T05:47:32;6.30;99.90
31369;DHT22;18004;48.416;10.066;2023-12-22T05:49:58;6.40;99.90
31369;DHT22;18004;48.416;10.066;2023-12-22T05:52:24;6.30;99.90
31369;DHT22;18004;48.416;10.066;2023-12-22T05:54:50;6.30;99.90
31369;DHT22;18004;48.416;10.066;2023-12-22T05:57:16;6.40;99.90
31369;DHT22;18004;48.416;10.066;2023-12-22T05:59:42;6.50;99.90
31369;DHT22;18004;48.416;10.066;2023-12-22T06:02:08;6.60;99.90
31369;DHT22;18004;48.416;10.066;2023-12-22T06:04:34;6.60;99.90
31369;DHT22;18004;48.416;10.066;2023-12-22T06:07:00;6.60;99.90
31369;DHT22;18004;48.416;10.066;2023-12-22T06:09:26;6.60;99.90
31369;DHT22;18004;48.416;10.066;2023-12-22T06:11:52;6.60;99.90
31369;DHT22;18004;48.416;10.066;2023-12-22T06:14:17;6.60;99.90
31369;DHT22;18004;48.416;10.066;2023-12-22T06:16:43;6.60;99.90
31369;DHT22;18004;48.416;10.066;2023-12-22T06:19:09;6.60;99.90
31369;DHT22;18004;48.416;10.066;2023-12-22T06:21:39;6.60;99.90
31369;DHT22;18004;48.416;10.066;2023-12-22T06:24:05;6.50;99.90
31369;DHT22;18004;48.416;10.066;2023-12-22T06:26:31;6.40;99.90
31369;DHT22;18004;48.416;10.066;2023-12-22T06:28:57;6.20;99.90
31369;DHT22;18004;48.416;10.066;2023-12-22T06:31:23;5.90;99.90
31369;DHT22;18004;48.416;10.066;2023-12-22T06:33:49;5.70;99.90
31369;DHT22;18004;48.416;10.066;2023-12-22T06:36:22;5.60;99.90
31369;DHT22;18004;48.416;10.066;2023-12-22T06:38:49;5.60;99.90
31369;DHT22;18004;48.416;10.066;2023-12-22T06:41:33;5.60;99.90
31369;DHT22;18004;48.416;10.066;2023-12-22T06:43:59;5.70;99.90
31369;DHT22;18004;48.416;10.066;2023-12-22T06:46:25;5.70;99.90
31369;DHT22;18004;48.416;10.066;2023-12-22T06:48:51;5.70;99.90
31369;DHT22;18004;48.416;10.066;2023-12-22T06:53:52;5.90;99.90
31369;DHT22;18004;48.416;10.066;2023-12-22T06:56:19;6.00;99.90
31369;DHT22;18004;48.416;10.066;2023-12-22T06:58:46;6.00;99.90
31369;DHT22;18004;48.416;10.066;2023-12-22T07:01:21;6.00;99.90
31369;DHT22;18004;48.416;10.066;2023-12-22T07:03:48;6.00;99.90
31369;DHT22;18004;48.416;10.066;2023-12-22T07:06:18;6.00;99.90
31369;DHT22;18004;48.416;10.066;2023-12-22T07:11:29;6.00;99.90
31369;DHT22;18004;48.416;10.066;2023-12-22T07:13:55;6.00;99.90
31369;DHT22;18004;48.416;10.066;2023-12-22T07:16:20;5.90;99.90
31369;DHT22;18004;48.416;10.066;2023-12-22T07:18:46;6.00;99.90
31369;DHT22;18004;48.416;10.066;2023-12-22T07:21:16;6.10;99.90
31369;DHT22;18004;48.416;10.066;2023-12-22T07:23:43;6.20;99.90
31369;DHT22;18004;48.416;10.066;2023-12-22T07:26:10;6.30;99.90
31369;DHT22;18004;48.416;10.066;2023-12-22T07:28:36;6.30;99.90
31369;DHT22;18004;48.416;10.066;2023-12-22T07:31:01;6.30;99.90
31369;DHT22;18004;48.416;10.066;2023-12-22T07:33:27;6.30;99.90
31369;DHT22;18004;48.416;10.066;2023-12-22T07:35:54;6.20;99.90
31369;DHT22;18004;48.416;10.066;2023-12-22T07:38:20;6.20;99.90
31369;DHT22;18004;48.416;10.066;2023-12-22T07:40:46;6.00;99.90
31369;DHT22;18004;48.416;10.066;2023-12-22T07:43:12;5.90;99.90
31369;DHT22;18004;48.416;10.066;2023-12-22T07:45:38;5.90;99.90
31369;DHT22;18004;48.416;10.066;2023-12-22T07:48:04;5.90;99.90
31369;DHT22;18004;48.416;10.066;2023-12-22T07:50:30;5.80;99.90
31369;DHT22;18004;48.416;10.066;2023-12-22T07:52:56;5.80;99.90
31369;DHT22;18004;48.416;10.066;2023-12-22T07:55:22;5.70;99.90
31369;DHT22;18004;48.416;10.066;2023-12-22T07:57:47;5.80;99.90
31369;DHT22;18004;48.416;10.066;2023-12-22T08:00:13;5.80;99.90
31369;DHT22;18004;48.416;10.066;2023-12-22T08:02:39;5.70;99.90
31369;DHT22;18004;48.416;10.066;2023-12-22T08:05:05;5.80;99.90
31369;DHT22;18004;48.416;10.066;2023-12-22T08:07:31;5.80;99.90
31369;DHT22;18004;48.416;10.066;2023-12-22T08:09:57;5.80;99.90
31369;DHT22;18004;48.416;10.066;2023-12-22T08:12:23;5.90;99.90
31369;DHT22;18004;48.416;10.066;2023-12-22T08:14:48;5.90;99.90
31369;DHT22;18004;48.416;10.066;2023-12-22T08:17:14;6.10;99.90
31369;DHT22;18004;48.416;10.066;2023-12-22T08:19:40;6.10;99.90
31369;DHT22;18004;48.416;10.066;2023-12-22T08:22:12;6.20;99.90
31369;DHT22;18004;48.416;10.066;2023-12-22T08:24:41;6.20;99.90
31369;DHT22;18004;48.416;10.066;2023-12-22T08:27:07;6.10;99.90
31369;DHT22;18004;48.416;10.066;2023-12-22T08:29:33;6.00;99.90
31369;DHT22;18004;48.416;10.066;2023-12-22T08:31:59;6.00;99.90
31369;DHT22;18004;48.416;10.066;2023-12-22T08:34:26;5.90;99.90
31369;DHT22;18004;48.416;10.066;2023-12-22T08:36:52;5.80;99.90
31369;DHT22;18004;48.416;10.066;2023-12-22T08:39:18;5.80;99.90
31369;DHT22;18004;48.416;10.066;2023-12-22T08:41:44;5.80;99.90
31369;DHT22;18004;48.416;10.066;2023-12-22T08:44:10;5.70;99.90
31369;DHT22;18004;48.416;10.066;2023-12-22T08:46:36;5.60;99.90
31369;DHT22;18004;48.416;10.066;2023-12-22T08:49:02;5.60;99.90
31369;DHT22;18004;48.416;10.066;2023-12-22T08:51:28;5.60;99.90
31369;DHT22;18004;48.416;10.066;2023-12-22T08:53:55;5.50;99.90
31369;DHT22;18004;48.416;10.066;2023-12-22T08:56:21;5.50;99.90
31369;DHT22;18004;48.416;10.066;2023-12-22T08:58:47;5.40;99.90
31369;DHT22;18004;48.416;10.066;2023-12-22T09:01:16;5.40;99.90
31369;DHT22;18004;48.416;10.066;2023-12-22T09:03:41;5.40;99.90
31369;DHT22;18004;48.416;10.066;2023-12-22T09:06:18;5.40;99.90
31369;DHT22;18004;48.416;10.066;2023-12-22T09:08:44;5.40;99.90
31369;DHT22;18004;48.416;10.066;2023-12-22T09:11:16;5.40;99.90
31369;DHT22;18004;48.416;10.066;2023-12-22T09:13:42;5.50;99.90
31369;DHT22;18004;48.416;10.066;2023-12-22T09:16:08;5.50;99.90
31369;DHT22;18004;48.416;10.066;2023-12-22T09:18:35;5.60;99.90
31369;DHT22;18004;48.416;10.066;2023-12-22T09:21:01;5.70;99.90
31369;DHT22;18004;48.416;10.066;2023-12-22T09:23:28;5.70;99.90
31369;DHT22;18004;48.416;10.066;2023-12-22T09:25:54;5.90;99.90
31369;DHT22;18004;48.416;10.066;2023-12-22T09:28:20;5.90;99.90
31369;DHT22;18004;48.416;10.066;2023-12-22T09:30:46;6.00;99.90
31369;DHT22;18004;48.416;10.066;2023-12-22T09:33:12;6.10;99.90
31369;DHT22;18004;48.416;10.066;2023-12-22T09:35:38;6.10;99.90
31369;DHT22;18004;48.416;10.066;2023-12-22T09:38:08;6.20;99.90
31369;DHT22;18004;48.416;10.066;2023-12-22T09:40:37;6.20;99.90
31369;DHT22;18004;48.416;10.066;2023-12-22T09:43:06;6.30;99.90
31369;DHT22;18004;48.416;10.066;2023-12-22T09:45:33;6.30;99.90
31369;DHT22;18004;48.416;10.066;2023-12-22T09:48:00;6.30;99.90
31369;DHT22;18004;48.416;10.066;2023-12-22T09:50:27;6.40;99.90
31369;DHT22;18004;48.416;10.066;2023-12-22T09:52:53;6.40;99.90
31369;DHT22;18004;48.416;10.066;2023-12-22T09:55:21;6.50;99.90
31369;DHT22;18004;48.416;10.066;2023-12-22T09:57:47;6.60;99.90
31369;DHT22;18004;48.416;10.066;2023-12-22T10:00:14;6.60;99.90
31369;DHT22;18004;48.416;10.066;2023-12-22T10:02:41;6.60;99.90
31369;DHT22;18004;48.416;10.066;2023-12-22T10:05:11;6.60;99.90
31369;DHT22;18004;48.416;10.066;2023-12-22T10:07:45;6.60;99.90
31369;DHT22;18004;48.416;10.066;2023-12-22T10:10:12;6.60;99.90
31369;DHT22;18004;48.416;10.066;2023-12-22T10:12:41;6.60;99.90
31369;DHT22;18004;48.416;10.066;2023-12-22T10:15:12;6.50;99.90
31369;DHT22;18004;48.416;10.066;2023-12-22T10:17:38;6.50;99.90
31369;DHT22;18004;48.416;10.066;2023-12-22T10:20:05;6.50;99.90
31369;DHT22;18004;48.416;10.066;2023-12-22T10:22:31;6.50;99.90
31369;DHT22;18004;48.416;10.066;2023-12-22T10:24:57;6.50;99.90
31369;DHT22;18004;48.416;10.066;2023-12-22T10:27:22;6.60;99.90
31369;DHT22;18004;48.416;10.066;2023-12-22T10:29:55;6.60;99.90
31369;DHT22;18004;48.416;10.066;2023-12-22T10:32:21;6.60;99.90
31369;DHT22;18004;48.416;10.066;2023-12-22T10:34:48;6.60;99.90
31369;DHT22;18004;48.416;10.066;2023-12-22T10:37:14;6.70;99.90
31369;DHT22;18004;48.416;10.066;2023-12-22T10:39:40;6.70;99.90
31369;DHT22;18004;48.416;10.066;2023-12-22T10:42:06;6.70;99.90
31369;DHT22;18004;48.416;10.066;2023-12-22T10:44:32;6.70;99.90
31369;DHT22;18004;48.416;10.066;2023-12-22T10:46:59;6.70;99.90
31369;DHT22;18004;48.416;10.066;2023-12-22T10:49:26;6.70;99.90
31369;DHT22;18004;48.416;10.066;2023-12-22T10:51:52;6.80;99.90
31369;DHT22;18004;48.416;10.066;2023-12-22T10:54:18;6.80;99.90
31369;DHT22;18004;48.416;10.066;2023-12-22T10:56:44;6.80;99.90
31369;DHT22;18004;48.416;10.066;2023-12-22T10:59:10;6.80;99.90
31369;DHT22;18004;48.416;10.066;2023-12-22T11:01:37;6.80;99.90
31369;DHT22;18004;48.416;10.066;2023-12-22T11:04:08;6.90;99.90
31369;DHT22;18004;48.416;10.066;2023-12-22T11:06:36;6.90;99.90
31369;DHT22;18004;48.416;10.066;2023-12-22T11:09:09;6.90;99.90
31369;DHT22;18004;48.416;10.066;2023-12-22T11:11:37;6.90;99.90
31369;DHT22;18004;48.416;10.066;2023-12-22T11:14:07;6.90;99.90
31369;DHT22;18004;48.416;10.066;2023-12-22T11:16:34;7.00;99.90
31369;DHT22;18004;48.416;10.066;2023-12-22T11:19:02;6.90;99.90
31369;DHT22;18004;48.416;10.066;2023-12-22T11:21:29;7.00;99.90
31369;DHT22;18004;48.416;10.066;2023-12-22T11:23:56;7.00;99.90
31369;DHT22;18004;48.416;10.066;2023-12-22T11:26:25;6.90;99.90
31369;DHT22;18004;48.416;10.066;2023-12-22T11:28:52;7.00;99.90
31369;DHT22;18004;48.416;10.066;2023-12-22T11:31:18;7.00;99.90
31369;DHT22;18004;48.416;10.066;2023-12-22T11:33:47;7.00;99.90
31369;DHT22;18004;48.416;10.066;2023-12-22T11:36:14;7.00;99.90
31369;DHT22;18004;48.416;10.066;2023-12-22T11:38:41;7.00;99.90
31369;DHT22;18004;48.416;10.066;2023-12-22T11:41:10;6.90;99.90
31369;DHT22;18004;48.416;10.066;2023-12-22T11:43:38;7.00;99.90
31369;DHT22;18004;48.416;10.066;2023-12-22T11:46:04;7.00;99.90
31369;DHT22;18004;48.416;10.066;2023-12-22T11:48:30;7.00;99.90
31369;DHT22;18004;48.416;10.066;2023-12-22T11:50:56;7.00;99.90
31369;DHT22;18004;48.416;10.066;2023-12-22T11:53:29;7.00;99.90
31369;DHT22;18004;48.416;10.066;2023-12-22T11:56:05;6.90;99.90
31369;DHT22;18004;48.416;10.066;2023-12-22T12:01:06;6.80;99.90
31369;DHT22;18004;48.416;10.066;2023-12-22T12:03:32;6.70;99.90
31369;DHT22;18004;48.416;10.066;2023-12-22T12:06:11;6.70;99.90
31369;DHT22;18004;48.416;10.066;2023-12-22T12:08:37;6.70;99.90
31369;DHT22;18004;48.416;10.066;2023-12-22T12:11:03;6.60;99.90
31369;DHT22;18004;48.416;10.066;2023-12-22T12:13:31;6.70;99.90
31369;DHT22;18004;48.416;10.066;2023-12-22T12:15:59;6.60;99.90
31369;DHT22;18004;48.416;10.066;2023-12-22T12:18:30;6.60;99.90
31369;DHT22;18004;48.416;10.066;2023-12-22T12:20:57;6.60;99.90
31369;DHT22;18004;48.416;10.066;2023-12-22T12:23:24;6.60;99.90
31369;DHT22;18004;48.416;10.066;2023-12-22T12:25:50;6.60;99.90
31369;DHT22;18004;48.416;10.066;2023-12-22T12:28:16;6.60;99.90
31369;DHT22;18004;48.416;10.066;2023-12-22T12:30:44;6.60;99.90
31369;DHT22;18004;48.416;10.066;2023-12-22T12:33:12;6.60;99.90
31369;DHT22;18004;48.416;10.066;2023-12-22T12:35:39;6.60;99.90
31369;DHT22;18004;48.416;10.066;2023-12-22T12:38:05;6.60;99.90
31369;DHT22;18004;48.416;10.066;2023-12-22T12:40:32;6.60;99.90
31369;DHT22;18004;48.416;10.066;2023-12-22T12:43:01;6.60;99.90
31369;DHT22;18004;48.416;10.066;2023-12-22T12:45:27;6.60;99.90
31369;DHT22;18004;48.416;10.066;2023-12-22T12:47:59;6.70;99.90
31369;DHT22;18004;48.416;10.066;2023-12-22T12:50:25;6.70;99.90
31369;DHT22;18004;48.416;10.066;2023-12-22T12:52:55;6.70;99.90
31369;DHT22;18004;48.416;10.066;2023-12-22T12:55:22;6.70;99.90
31369;DHT22;18004;48.416;10.066;2023-12-22T12:57:49;6.70;99.90
31369;DHT22;18004;48.416;10.066;2023-12-22T13:00:28;6.70;99.90
31369;DHT22;18004;48.416;10.066;2023-12-22T13:02:54;6.80;99.90
31369;DHT22;18004;48.416;10.066;2023-12-22T13:05:24;6.70;99.90
31369;DHT22;18004;48.416;10.066;2023-12-22T13:07:51;6.70;99.90
31369;DHT22;18004;48.416;10.066;2023-12-22T13:10:24;6.80;99.90
31369;DHT22;18004;48.416;10.066;2023-12-22T13:12:51;6.70;99.90
31369;DHT22;18004;48.416;10.066;2023-12-22T13:15:20;6.80;99.90
31369;DHT22;18004;48.416;10.066;2023-12-22T13:17:47;6.80;99.90
31369;DHT22;18004;48.416;10.066;2023-12-22T13:20:13;6.80;99.90
31369;DHT22;18004;48.416;10.066;2023-12-22T13:22:39;6.70;99.90
31369;DHT22;18004;48.416;10.066;2023-12-22T13:25:05;6.70;99.90
31369;DHT22;18004;48.416;10.066;2023-12-22T13:27:31;6.70;99.90
31369;DHT22;18004;48.416;10.066;2023-12-22T13:30:09;6.70;99.90
31369;DHT22;18004;48.416;10.066;2023-12-22T13:32:35;6.80;99.90
31369;DHT22;18004;48.416;10.066;2023-12-22T13:35:00;6.80;99.90
31369;DHT22;18004;48.416;10.066;2023-12-22T13:37:26;6.80;99.90
31369;DHT22;18004;48.416;10.066;2023-12-22T13:39:56;6.80;99.90
31369;DHT22;18004;48.416;10.066;2023-12-22T13:42:23;6.80;99.90
31369;DHT22;18004;48.416;10.066;2023-12-22T13:44:50;6.80;99.90
31369;DHT22;18004;48.416;10.066;2023-12-22T13:47:18;6.80;99.90
31369;DHT22;18004;48.416;10.066;2023-12-22T13:49:45;6.80;99.90
31369;DHT22;18004;48.416;10.066;2023-12-22T13:52:30;6.80;99.90
31369;DHT22;18004;48.416;10.066;2023-12-22T13:55:12;6.90;99.90
31369;DHT22;18004;48.416;10.066;2023-12-22T13:57:38;6.90;99.90
31369;DHT22;18004;48.416;10.066;2023-12-22T14:00:26;6.90;99.90
31369;DHT22;18004;48.416;10.066;2023-12-22T14:02:52;6.90;99.90
31369;DHT22;18004;48.416;10.066;2023-12-22T14:05:21;6.90;99.90
31369;DHT22;18004;48.416;10.066;2023-12-22T14:07:47;7.00;99.90
31369;DHT22;18004;48.416;10.066;2023-12-22T14:10:13;7.00;99.90
31369;DHT22;18004;48.416;10.066;2023-12-22T14:12:40;7.10;99.90
31369;DHT22;18004;48.416;10.066;2023-12-22T14:15:09;7.10;99.90
31369;DHT22;18004;48.416;10.066;2023-12-22T14:17:35;7.10;99.90
31369;DHT22;18004;48.416;10.066;2023-12-22T14:20:01;7.20;99.90
31369;DHT22;18004;48.416;10.066;2023-12-22T14:22:27;7.20;99.90
31369;DHT22;18004;48.416;10.066;2023-12-22T14:24:53;7.30;99.90
31369;DHT22;18004;48.416;10.066;2023-12-22T14:27:19;7.40;99.90
31369;DHT22;18004;48.416;10.066;2023-12-22T14:29:48;7.40;99.90
31369;DHT22;18004;48.416;10.066;2023-12-22T14:32:14;7.50;99.90
31369;DHT22;18004;48.416;10.066;2023-12-22T14:34:48;7.50;99.90
31369;DHT22;18004;48.416;10.066;2023-12-22T14:37:13;7.50;99.90
31369;DHT22;18004;48.416;10.066;2023-12-22T14:39:42;7.50;99.90
31369;DHT22;18004;48.416;10.066;2023-12-22T14:42:07;7.60;99.90
31369;DHT22;18004;48.416;10.066;2023-12-22T14:44:33;7.70;99.90
31369;DHT22;18004;48.416;10.066;2023-12-22T14:46:59;7.70;99.90
31369;DHT22;18004;48.416;10.066;2023-12-22T14:49:25;7.90;99.90
31369;DHT22;18004;48.416;10.066;2023-12-22T14:51:51;7.90;99.90
31369;DHT22;18004;48.416;10.066;2023-12-22T14:54:19;8.00;99.90
31369;DHT22;18004;48.416;10.066;2023-12-22T14:56:45;8.00;99.90
31369;DHT22;18004;48.416;10.066;2023-12-22T14:59:11;8.00;99.90
31369;DHT22;18004;48.416;10.066;2023-12-22T15:01:38;8.00;99.90
31369;DHT22;18004;48.416;10.066;2023-12-22T15:04:05;8.00;99.90
31369;DHT22;18004;48.416;10.066;2023-12-22T15:06:31;8.10;99.90
31369;DHT22;18004;48.416;10.066;2023-12-22T15:08:57;8.10;99.90
31369;DHT22;18004;48.416;10.066;2023-12-22T15:11:26;8.10;99.90
31369;DHT22;18004;48.416;10.066;2023-12-22T15:13:52;8.10;99.90
31369;DHT22;18004;48.416;10.066;2023-12-22T15:16:21;8.20;99.90
31369;DHT22;18004;48.416;10.066;2023-12-22T15:18:46;8.30;99.90
31369;DHT22;18004;48.416;10.066;2023-12-22T15:21:22;8.30;99.90
31369;DHT22;18004;48.416;10.066;2023-12-22T15:23:48;8.20;99.90
31369;DHT22;18004;48.416;10.066;2023-12-22T15:26:24;8.30;99.90
31369;DHT22;18004;48.416;10.066;2023-12-22T15:28:51;8.20;99.90
31369;DHT22;18004;48.416;10.066;2023-12-22T15:31:17;8.20;99.90
31369;DHT22;18004;48.416;10.066;2023-12-22T15:33:43;8.20;99.90
31369;DHT22;18004;48.416;10.066;2023-12-22T15:36:09;8.20;99.90
31369;DHT22;18004;48.416;10.066;2023-12-22T15:38:35;8.10;99.90
31369;DHT22;18004;48.416;10.066;2023-12-22T15:41:01;8.20;99.90
31369;DHT22;18004;48.416;10.066;2023-12-22T15:43:27;8.20;99.90
31369;DHT22;18004;48.416;10.066;2023-12-22T15:45:53;8.20;99.90